createdAt,value
2023-12-15T00:02:17.365Z,-1.38
2023-12-15T00:04:44.655Z,-1.17
2023-12-15T00:07:11.922Z,-1.19
2023-12-15T00:09:39.283Z,-1.46
2023-12-15T00:12:07.049Z,-1.62
2023-12-15T00:14:34.373Z,-1.99
2023-12-15T00:17:01.700Z,-2.10
2023-12-15T00:19:29.039Z,-1.89
2023-12-15T00:21:56.306Z,-2.92
2023-12-15T00:24:23.550Z,-2.85
2023-12-15T00:26:50.954Z,-1.97
2023-12-15T00:29:18.941Z,-1.01
2023-12-15T00:31:46.246Z,-1.25
2023-12-15T00:34:13.557Z,-1.35
2023-12-15T00:36:40.837Z,-1.33
2023-12-15T00:39:08.095Z,-2.24
2023-12-15T00:41:35.459Z,-2.12
2023-12-15T00:44:05.887Z,-1.71
2023-12-15T00:46:33.652Z,-1.68
2023-12-15T00:49:01.029Z,-0.72
2023-12-15T00:51:28.399Z,-2.16
2023-12-15T00:53:55.783Z,-1.14
2023-12-15T00:56:23.279Z,-1.61
2023-12-15T00:58:50.854Z,-1.10
2023-12-15T01:01:18.270Z,-1.27
2023-12-15T01:03:45.646Z,-1.88
2023-12-15T01:06:13.114Z,-2.24
2023-12-15T01:08:40.575Z,-1.79
2023-12-15T01:11:08.151Z,-1.36
2023-12-15T01:13:35.475Z,-2.51
2023-12-15T01:16:06.209Z,-2.02
2023-12-15T01:18:33.669Z,-3.06
2023-12-15T01:21:01.112Z,-1.89
2023-12-15T01:23:28.484Z,-1.67
2023-12-15T01:25:55.834Z,-2.02
2023-12-15T01:28:23.082Z,-1.62
2023-12-15T01:30:50.416Z,-1.71
2023-12-15T01:33:17.798Z,-1.46
2023-12-15T01:35:45.329Z,-1.89
2023-12-15T01:38:12.644Z,-2.52
2023-12-15T01:40:39.950Z,-2.89
2023-12-15T01:43:08.280Z,-2.63
2023-12-15T01:45:35.950Z,-3.83
2023-12-15T01:48:03.836Z,-3.09
2023-12-15T01:50:31.276Z,-1.86
2023-12-15T01:52:58.593Z,-3.52
2023-12-15T01:55:26.123Z,-3.38
2023-12-15T01:57:53.415Z,-2.56
2023-12-15T02:00:20.837Z,-1.35
2023-12-15T02:02:48.070Z,-1.67
2023-12-15T02:05:15.360Z,-1.42
2023-12-15T02:07:42.706Z,-1.29
2023-12-15T02:10:10.053Z,-1.89
2023-12-15T02:12:38.067Z,-2.54
2023-12-15T02:15:06.092Z,-1.57
2023-12-15T02:17:36.790Z,-1.28
2023-12-15T02:20:05.556Z,-2.08
2023-12-15T02:22:32.827Z,-2.31
2023-12-15T02:25:00.212Z,-1.58
2023-12-15T02:27:27.562Z,-1.51
2023-12-15T02:29:54.926Z,-1.99
2023-12-15T02:32:22.232Z,-1.94
2023-12-15T02:34:49.634Z,-2.63
2023-12-15T02:37:16.978Z,-2.73
2023-12-15T02:39:44.222Z,-2.29
2023-12-15T02:42:11.605Z,-1.72
2023-12-15T02:44:38.904Z,-2.03
2023-12-15T02:47:06.242Z,-2.52
2023-12-15T02:49:39.441Z,-2.02
2023-12-15T02:52:08.172Z,-1.74
2023-12-15T02:54:36.099Z,-1.18
2023-12-15T02:57:03.392Z,-1.10
2023-12-15T02:59:30.758Z,-1.42
2023-12-15T03:01:58.066Z,-1.18
2023-12-15T03:04:25.400Z,-1.49
2023-12-15T03:06:52.660Z,-3.51
2023-12-15T03:09:19.892Z,-2.19
2023-12-15T03:11:47.125Z,-2.42
2023-12-15T03:14:14.427Z,-2.65
2023-12-15T03:16:41.704Z,-1.65
2023-12-15T03:19:09.019Z,-1.72
2023-12-15T03:21:36.335Z,-1.86
2023-12-15T03:24:03.723Z,-1.52
2023-12-15T03:26:31.160Z,-1.42
2023-12-15T03:28:58.523Z,-2.42
2023-12-15T03:31:25.883Z,-3.09
2023-12-15T03:33:53.148Z,-2.43
2023-12-15T03:36:20.397Z,-1.91
2023-12-15T03:38:47.670Z,-1.93
2023-12-15T03:41:15.133Z,-1.78
2023-12-15T03:43:42.470Z,-2.52
2023-12-15T03:46:09.756Z,-1.65
2023-12-15T03:48:37.031Z,-1.25
2023-12-15T03:51:04.425Z,-1.59
2023-12-15T03:53:31.731Z,-1.55
2023-12-15T03:55:59.049Z,-2.99
2023-12-15T03:58:26.366Z,-2.46
2023-12-15T04:00:54.192Z,-1.29
2023-12-15T04:03:22.241Z,-1.80
2023-12-15T04:05:49.764Z,-1.53
2023-12-15T04:08:17.446Z,-1.38
2023-12-15T04:10:46.232Z,-1.36
2023-12-15T04:13:13.491Z,-1.65
2023-12-15T04:15:40.801Z,-1.66
2023-12-15T04:18:08.515Z,-1.24
2023-12-15T04:20:35.936Z,-1.50
2023-12-15T04:23:03.213Z,-1.95
2023-12-15T04:25:30.871Z,-1.95
2023-12-15T04:27:58.418Z,-1.41
2023-12-15T04:30:25.887Z,-2.55
2023-12-15T04:32:53.271Z,-2.07
2023-12-15T04:35:21.297Z,-2.29
2023-12-15T04:37:48.609Z,-1.78
2023-12-15T04:40:15.990Z,-1.79
2023-12-15T04:42:43.433Z,-0.74
2023-12-15T04:45:10.968Z,-1.57
2023-12-15T04:47:39.753Z,-1.86
2023-12-15T04:50:08.070Z,-2.35
2023-12-15T04:52:35.230Z,-2.90
2023-12-15T04:55:02.380Z,-2.79
2023-12-15T04:57:34.456Z,-2.20
2023-12-15T05:00:01.892Z,-1.62
2023-12-15T05:02:31.771Z,-1.75
2023-12-15T05:04:59.000Z,-1.24
2023-12-15T05:07:26.260Z,-1.29
2023-12-15T05:09:53.659Z,-1.28
2023-12-15T05:12:20.882Z,-1.08
2023-12-15T05:14:48.075Z,-2.37
2023-12-15T05:17:15.340Z,-2.51
2023-12-15T05:19:42.567Z,-1.79
2023-12-15T05:22:09.737Z,-1.63
2023-12-15T05:24:36.974Z,-1.80
2023-12-15T05:27:04.282Z,-1.91
2023-12-15T05:29:32.888Z,-1.13
2023-12-15T05:32:00.540Z,-1.25
2023-12-15T05:34:28.520Z,-1.54
2023-12-15T05:36:55.695Z,-1.41
2023-12-15T05:39:22.819Z,-1.84
2023-12-15T05:41:50.058Z,-2.49
2023-12-15T05:44:17.280Z,-1.54
2023-12-15T05:46:44.539Z,-0.98
2023-12-15T05:49:14.657Z,-0.86
2023-12-15T05:51:48.725Z,-0.97
2023-12-15T05:54:16.349Z,-0.67
2023-12-15T05:56:43.952Z,-1.19
2023-12-15T05:59:11.174Z,-1.00
2023-12-15T06:01:38.356Z,-2.32
2023-12-15T06:04:05.705Z,-1.59
2023-12-15T06:06:33.308Z,-2.06
2023-12-15T06:09:00.641Z,-1.53
2023-12-15T06:11:28.976Z,-0.86
2023-12-15T06:13:57.521Z,0.11
2023-12-15T06:16:24.870Z,-0.19
2023-12-15T06:18:52.254Z,-0.67
2023-12-15T06:21:27.180Z,-0.76
2023-12-15T06:23:55.510Z,-1.24
2023-12-15T06:26:25.699Z,-1.15
2023-12-15T06:28:57.286Z,-1.99
2023-12-15T06:31:28.823Z,-1.42
2023-12-15T06:33:57.426Z,-1.20
2023-12-15T06:36:30.104Z,-0.90
2023-12-15T06:38:57.943Z,-0.51
2023-12-15T06:41:25.389Z,-0.23
2023-12-15T06:43:52.658Z,-0.08
2023-12-15T06:46:20.501Z,-0.61
2023-12-15T06:48:47.948Z,-0.44
2023-12-15T06:51:15.583Z,-1.07
2023-12-15T06:53:42.908Z,-0.57
2023-12-15T06:56:10.408Z,-0.74
2023-12-15T06:58:37.718Z,-1.27
2023-12-15T07:01:06.154Z,-0.91
2023-12-15T07:03:34.389Z,-0.74
2023-12-15T07:06:01.836Z,-1.22
2023-12-15T07:08:29.150Z,-0.77
2023-12-15T07:10:56.380Z,-1.56
2023-12-15T07:13:24.784Z,-1.07
2023-12-15T07:15:52.060Z,-0.90
2023-12-15T07:18:19.370Z,-1.20
2023-12-15T07:20:46.674Z,-1.23
2023-12-15T07:23:14.027Z,-1.81
2023-12-15T07:25:41.431Z,-1.31
2023-12-15T07:28:08.661Z,-0.36
2023-12-15T07:30:36.060Z,-0.10
2023-12-15T07:33:03.483Z,-1.04
2023-12-15T07:35:33.190Z,-0.56
2023-12-15T07:38:01.354Z,-1.21
2023-12-15T07:40:29.014Z,-0.97
2023-12-15T07:42:56.529Z,-1.26
2023-12-15T07:45:23.752Z,-1.48
2023-12-15T07:47:51.233Z,-1.43
2023-12-15T07:50:21.995Z,-0.89
2023-12-15T07:52:49.206Z,-0.94
2023-12-15T07:55:19.149Z,-0.23
2023-12-15T07:57:47.320Z,-0.54
2023-12-15T08:00:15.045Z,-0.91
2023-12-15T08:02:45.139Z,-0.98
2023-12-15T08:05:12.741Z,-1.13
2023-12-15T08:07:40.317Z,-1.59
2023-12-15T08:10:08.348Z,-1.43
2023-12-15T08:12:35.616Z,-0.99
2023-12-15T08:15:02.855Z,-1.16
2023-12-15T08:17:35.278Z,-0.50
2023-12-15T08:20:03.839Z,-0.73
2023-12-15T08:22:32.648Z,-0.54
2023-12-15T08:24:59.912Z,-0.52
2023-12-15T08:27:27.146Z,-0.53
2023-12-15T08:29:58.396Z,-0.63
2023-12-15T08:32:26.016Z,-1.09
2023-12-15T08:34:53.411Z,-0.85
2023-12-15T08:37:22.887Z,-0.63
2023-12-15T08:39:50.244Z,-0.05
2023-12-15T08:42:17.465Z,-0.89
2023-12-15T08:44:46.985Z,-2.20
2023-12-15T08:47:14.553Z,-1.63
2023-12-15T08:49:41.837Z,-0.82
2023-12-15T08:52:09.154Z,-1.26
2023-12-15T08:54:36.302Z,-0.74
2023-12-15T08:57:03.788Z,-0.56
2023-12-15T08:59:31.274Z,-0.55
2023-12-15T09:01:59.261Z,-0.35
2023-12-15T09:04:26.645Z,-0.01
2023-12-15T09:06:54.007Z,-0.04
2023-12-15T09:09:23.535Z,0.08
2023-12-15T09:11:51.198Z,-1.60
2023-12-15T09:14:18.983Z,-1.03
2023-12-15T09:16:48.704Z,-1.05
2023-12-15T09:19:16.108Z,-0.34
2023-12-15T09:21:43.500Z,0.24
2023-12-15T09:24:11.150Z,-0.35
2023-12-15T09:26:40.141Z,-0.29
2023-12-15T09:29:07.971Z,-0.26
2023-12-15T09:31:35.653Z,0.25
2023-12-15T09:34:02.961Z,-0.54
2023-12-15T09:36:30.673Z,-0.38
2023-12-15T09:38:59.575Z,-0.54
2023-12-15T09:41:30.244Z,-0.20
2023-12-15T09:43:57.718Z,-1.21
2023-12-15T09:46:25.307Z,-1.46
2023-12-15T09:48:53.445Z,-0.87
2023-12-15T09:51:26.709Z,-0.03
2023-12-15T09:53:54.820Z,0.18
2023-12-15T09:56:23.234Z,0.07
2023-12-15T09:58:50.614Z,0.04
2023-12-15T10:01:18.028Z,0.05
2023-12-15T10:03:45.807Z,0.64
2023-12-15T10:06:14.514Z,0.36
2023-12-15T10:08:58.374Z,0.23
2023-12-15T10:11:34.895Z,0.59
2023-12-15T10:14:06.560Z,0.56
2023-12-15T10:16:36.764Z,0.73
2023-12-15T10:19:06.091Z,0.83
2023-12-15T10:21:35.352Z,0.70
2023-12-15T10:24:20.510Z,1.52
2023-12-15T10:26:48.599Z,0.89
2023-12-15T10:29:18.957Z,1.23
2023-12-15T10:31:46.494Z,1.00
2023-12-15T10:34:16.186Z,0.99
2023-12-15T10:36:47.642Z,1.54
2023-12-15T10:39:15.709Z,0.95
2023-12-15T10:41:44.169Z,1.08
2023-12-15T10:44:13.786Z,1.26
2023-12-15T10:46:45.585Z,1.17
2023-12-15T10:49:13.938Z,1.16
2023-12-15T10:51:42.665Z,1.18
2023-12-15T10:54:10.543Z,1.34
2023-12-15T10:56:39.476Z,1.43
2023-12-15T10:59:08.715Z,1.37
2023-12-15T11:01:39.043Z,1.49
2023-12-15T11:04:22.952Z,1.73
2023-12-15T11:06:50.790Z,1.54
2023-12-15T11:09:45.193Z,1.64
2023-12-15T11:12:39.401Z,1.72
2023-12-15T11:15:10.066Z,1.49
2023-12-15T11:17:44.760Z,1.50
2023-12-15T11:20:21.272Z,1.35
2023-12-15T11:22:50.342Z,1.43
2023-12-15T11:25:26.928Z,1.80
2023-12-15T11:28:11.822Z,1.88
2023-12-15T11:30:45.790Z,1.12
2023-12-15T11:33:26.078Z,1.20
2023-12-15T11:36:01.951Z,0.96
2023-12-15T11:38:29.597Z,1.39
2023-12-15T11:40:57.954Z,2.36
2023-12-15T11:43:25.365Z,1.69
2023-12-15T11:45:55.875Z,1.76
2023-12-15T11:48:24.221Z,1.49
2023-12-15T11:51:10.442Z,1.34
2023-12-15T11:53:41.260Z,1.83
2023-12-15T11:56:10.241Z,2.35
2023-12-15T11:58:37.938Z,1.64
2023-12-15T12:01:05.740Z,1.72
2023-12-15T12:03:35.889Z,2.23
2023-12-15T12:06:06.769Z,2.05
2023-12-15T12:08:34.882Z,1.63
2023-12-15T12:11:04.556Z,1.11
2023-12-15T12:13:39.346Z,0.69
2023-12-15T12:16:07.183Z,0.71
2023-12-15T12:18:34.515Z,0.59
2023-12-15T12:21:09.971Z,1.26
2023-12-15T12:23:43.426Z,1.56
2023-12-15T12:26:15.944Z,1.70
2023-12-15T12:28:52.750Z,1.79
2023-12-15T12:31:21.290Z,1.99
2023-12-15T12:33:49.095Z,1.62
2023-12-15T12:36:17.311Z,1.42
2023-12-15T12:38:47.275Z,1.38
2023-12-15T12:41:15.203Z,2.67
2023-12-15T12:43:43.382Z,1.50
2023-12-15T12:46:14.847Z,1.46
2023-12-15T12:48:44.960Z,1.75
2023-12-15T12:51:12.377Z,1.83
2023-12-15T12:53:39.686Z,1.63
2023-12-15T12:56:10.700Z,1.54
2023-12-15T12:58:38.139Z,1.54
2023-12-15T13:01:05.773Z,1.36
2023-12-15T13:03:33.314Z,1.48
2023-12-15T13:06:00.765Z,1.49
2023-12-15T13:08:28.135Z,1.37
2023-12-15T13:10:55.423Z,1.50
2023-12-15T13:13:23.932Z,1.84
2023-12-15T13:15:51.722Z,1.58
2023-12-15T13:18:19.291Z,1.75
2023-12-15T13:20:46.980Z,1.88
2023-12-15T13:23:16.083Z,1.57
2023-12-15T13:25:44.185Z,2.07
2023-12-15T13:28:11.644Z,0.99
2023-12-15T13:30:39.360Z,1.31
2023-12-15T13:33:07.286Z,1.54
2023-12-15T13:35:35.043Z,1.38
2023-12-15T13:38:02.476Z,0.61
2023-12-15T13:40:29.759Z,0.67
2023-12-15T13:42:57.004Z,0.56
2023-12-15T13:45:24.352Z,0.52
2023-12-15T13:47:51.870Z,0.04
2023-12-15T13:50:23.082Z,-0.68
2023-12-15T13:52:50.476Z,-0.44
2023-12-15T13:55:17.750Z,-0.71
2023-12-15T13:57:46.773Z,-0.88
2023-12-15T14:00:14.907Z,-0.73
2023-12-15T14:02:43.123Z,-0.94
2023-12-15T14:05:11.404Z,-0.89
2023-12-15T14:07:39.077Z,-0.83
2023-12-15T14:10:07.453Z,-0.71
2023-12-15T14:12:35.172Z,-0.57
2023-12-15T14:15:03.081Z,-0.56
2023-12-15T14:17:33.188Z,-1.21
2023-12-15T14:20:00.719Z,-0.88
2023-12-15T14:22:27.997Z,-1.30
2023-12-15T14:24:55.319Z,-1.51
2023-12-15T14:27:22.684Z,-1.48
2023-12-15T14:29:50.595Z,-1.73
2023-12-15T14:32:18.532Z,-1.64
2023-12-15T14:34:46.005Z,-1.08
2023-12-15T14:37:13.337Z,-1.16
2023-12-15T14:39:40.666Z,-1.16
2023-12-15T14:42:07.990Z,-1.22
2023-12-15T14:44:35.406Z,-1.12
2023-12-15T14:47:04.282Z,-0.95
2023-12-15T14:49:32.373Z,-0.97
2023-12-15T14:52:00.539Z,-1.10
2023-12-15T14:54:28.021Z,-1.41
2023-12-15T14:56:55.545Z,-1.30
2023-12-15T14:59:26.533Z,-1.16
2023-12-15T15:01:58.920Z,-0.85
2023-12-15T15:04:27.580Z,-0.49
2023-12-15T15:06:55.073Z,-0.68
2023-12-15T15:09:22.709Z,-0.12
2023-12-15T15:11:50.270Z,-0.38
2023-12-15T15:14:17.787Z,-1.05
2023-12-15T15:16:45.487Z,-1.02
2023-12-15T15:19:13.112Z,-0.12
2023-12-15T15:21:40.649Z,-0.62
2023-12-15T15:24:08.141Z,-0.64
2023-12-15T15:26:35.484Z,-0.80
2023-12-15T15:29:02.908Z,-0.78
2023-12-15T15:31:30.523Z,0.12
2023-12-15T15:33:58.035Z,-1.30
2023-12-15T15:36:28.693Z,-1.46
2023-12-15T15:38:56.082Z,-0.80
2023-12-15T15:41:23.475Z,-1.38
2023-12-15T15:44:01.820Z,-1.47
2023-12-15T15:46:33.644Z,-1.72
2023-12-15T15:49:01.106Z,-1.59
2023-12-15T15:51:28.649Z,-1.67
2023-12-15T15:53:56.030Z,-1.15
2023-12-15T15:56:23.342Z,-1.80
2023-12-15T15:58:52.316Z,-1.62
2023-12-15T16:01:35.294Z,-1.04
2023-12-15T16:04:08.721Z,-1.06
2023-12-15T16:06:36.310Z,-1.46
2023-12-15T16:09:03.844Z,-1.54
2023-12-15T16:11:31.251Z,-1.46
2023-12-15T16:14:04.824Z,-1.41
2023-12-15T16:16:35.978Z,-1.27
2023-12-15T16:19:03.529Z,-1.54
2023-12-15T16:21:36.491Z,-1.68
2023-12-15T16:24:06.096Z,-1.84
2023-12-15T16:26:33.865Z,-1.18
2023-12-15T16:29:01.325Z,-0.74
2023-12-15T16:31:28.952Z,-1.38
2023-12-15T16:33:56.545Z,-1.52
2023-12-15T16:36:24.437Z,-1.48
2023-12-15T16:38:52.101Z,-1.77
2023-12-15T16:41:26.260Z,-1.32
2023-12-15T16:43:53.901Z,-0.49
2023-12-15T16:46:21.614Z,-0.28
2023-12-15T16:48:55.753Z,-1.44
2023-12-15T16:51:27.049Z,-1.64
2023-12-15T16:53:55.415Z,-1.85
2023-12-15T16:56:23.022Z,-2.66
2023-12-15T16:58:50.780Z,-2.54
2023-12-15T17:01:18.490Z,-2.65
2023-12-15T17:03:47.129Z,-2.52
2023-12-15T17:06:15.112Z,-2.67
2023-12-15T17:08:43.811Z,-2.76
2023-12-15T17:11:12.685Z,-2.97
2023-12-15T17:13:40.186Z,-3.02
2023-12-15T17:16:15.278Z,-2.69
2023-12-15T17:18:46.846Z,-3.03
2023-12-15T17:21:14.986Z,-2.79
2023-12-15T17:23:42.889Z,-2.72
2023-12-15T17:26:10.964Z,-3.16
2023-12-15T17:28:38.373Z,-2.31
2023-12-15T17:31:06.727Z,-2.78
2023-12-15T17:33:34.129Z,-2.97
2023-12-15T17:36:01.529Z,-2.80
2023-12-15T17:38:28.955Z,-2.87
2023-12-15T17:40:56.188Z,-3.00
2023-12-15T17:43:25.513Z,-3.27
2023-12-15T17:45:53.310Z,-3.53
2023-12-15T17:48:21.836Z,-3.29
2023-12-15T17:50:50.120Z,-2.88
2023-12-15T17:53:18.020Z,-3.02
2023-12-15T17:55:45.775Z,-3.05
2023-12-15T17:58:13.258Z,-2.91
2023-12-15T18:00:46.007Z,-3.61
2023-12-15T18:03:14.729Z,-3.15
2023-12-15T18:05:42.277Z,-3.22
2023-12-15T18:08:09.652Z,-3.63
2023-12-15T18:10:37.709Z,-3.58
2023-12-15T18:13:05.175Z,-3.33
2023-12-15T18:15:32.444Z,-3.66
2023-12-15T18:18:00.091Z,-3.48
2023-12-15T18:20:28.091Z,-3.54
2023-12-15T18:22:56.006Z,-3.70
2023-12-15T18:25:23.772Z,-3.56
2023-12-15T18:27:51.161Z,-3.78
2023-12-15T18:30:22.673Z,-3.45
2023-12-15T18:32:50.446Z,-3.80
2023-12-15T18:35:19.325Z,-3.93
2023-12-15T18:37:46.968Z,-3.53
2023-12-15T18:40:14.709Z,-3.35
2023-12-15T18:42:42.372Z,-3.34
2023-12-15T18:45:10.714Z,-3.50
2023-12-15T18:47:38.578Z,-3.44
2023-12-15T18:50:07.845Z,-3.35
2023-12-15T18:52:35.498Z,-3.47
2023-12-15T18:55:03.351Z,-3.46
2023-12-15T19:00:07.464Z,-3.69
2023-12-15T19:02:34.799Z,-3.82
2023-12-15T19:05:02.798Z,-3.67
2023-12-15T19:07:32.852Z,-3.43
2023-12-15T19:10:00.328Z,-3.98
2023-12-15T19:12:32.802Z,-3.60
2023-12-15T19:15:02.812Z,-3.55
2023-12-15T19:17:33.347Z,-3.15
2023-12-15T19:20:01.172Z,-2.87
2023-12-15T19:22:29.255Z,-2.99
2023-12-15T19:24:59.404Z,-3.21
2023-12-15T19:27:26.701Z,-2.46
2023-12-15T19:29:55.093Z,-2.55
2023-12-15T19:32:22.431Z,-2.58
2023-12-15T19:34:52.200Z,-3.22
2023-12-15T19:37:19.646Z,-3.32
2023-12-15T19:39:47.010Z,-2.72
2023-12-15T19:42:14.295Z,-2.50
2023-12-15T19:44:44.432Z,-2.31
2023-12-15T19:47:11.781Z,-2.21
2023-12-15T19:49:39.328Z,-2.55
2023-12-15T19:52:06.843Z,-2.66
2023-12-15T19:54:34.232Z,-2.37
2023-12-15T19:57:01.568Z,-2.26
2023-12-15T19:59:28.860Z,-2.50
2023-12-15T20:02:04.270Z,-2.69
2023-12-15T20:04:32.046Z,-2.57
2023-12-15T20:06:59.794Z,-2.91
2023-12-15T20:09:27.866Z,-3.25
2023-12-15T20:11:58.456Z,-3.54
2023-12-15T20:14:25.742Z,-2.27
2023-12-15T20:16:53.108Z,-2.10
2023-12-15T20:19:21.116Z,-2.03
2023-12-15T20:21:48.599Z,-2.95
2023-12-15T20:24:16.260Z,-2.78
2023-12-15T20:26:44.595Z,-2.69
2023-12-15T20:29:12.435Z,-2.31
2023-12-15T20:31:43.330Z,-1.66
2023-12-15T20:34:11.074Z,-2.28
2023-12-15T20:36:38.642Z,-2.05
2023-12-15T20:39:05.914Z,-1.81
2023-12-15T20:41:33.271Z,-1.74
2023-12-15T20:44:01.056Z,-1.66
2023-12-15T20:46:29.696Z,-1.75
2023-12-15T20:48:58.869Z,-2.09
2023-12-15T20:51:26.480Z,-2.10
2023-12-15T20:53:53.957Z,-2.30
2023-12-15T20:56:34.740Z,-2.50
2023-12-15T20:59:02.425Z,-2.84
2023-12-15T21:01:29.919Z,-1.95
2023-12-15T21:03:58.390Z,-2.76
2023-12-15T21:06:27.803Z,-3.63
2023-12-15T21:08:55.422Z,-3.08
2023-12-15T21:11:22.941Z,-3.05
2023-12-15T21:13:53.232Z,-3.55
2023-12-15T21:16:28.579Z,-3.47
2023-12-15T21:18:58.220Z,-3.47
2023-12-15T21:21:36.044Z,-3.14
2023-12-15T21:24:04.809Z,-3.38
2023-12-15T21:26:32.267Z,-3.48
2023-12-15T21:29:00.029Z,-3.58
2023-12-15T21:31:27.741Z,-3.42
2023-12-15T21:33:56.676Z,-3.20
2023-12-15T21:36:25.033Z,-3.34
2023-12-15T21:38:52.399Z,-3.56
2023-12-15T21:41:19.676Z,-4.03
2023-12-15T21:43:47.137Z,-3.42
2023-12-15T21:46:17.393Z,-3.80
2023-12-15T21:48:46.296Z,-3.77
2023-12-15T21:51:19.445Z,-2.95
2023-12-15T21:53:46.768Z,-3.24
2023-12-15T21:56:14.519Z,-3.67
2023-12-15T21:58:43.254Z,-3.52
2023-12-15T22:01:17.509Z,-3.41
2023-12-15T22:03:47.567Z,-3.74
2023-12-15T22:06:16.173Z,-3.46
2023-12-15T22:08:43.606Z,-3.32
2023-12-15T22:11:10.836Z,-3.71
2023-12-15T22:13:41.453Z,-3.37
2023-12-15T22:16:12.539Z,-3.34
2023-12-15T22:18:40.992Z,-3.63
2023-12-15T22:21:10.660Z,-3.42
2023-12-15T22:23:39.324Z,-3.33
2023-12-15T22:26:11.791Z,-3.55
2023-12-15T22:28:40.236Z,-3.72
2023-12-15T22:31:08.510Z,-3.44
2023-12-15T22:33:36.515Z,-3.45
2023-12-15T22:36:04.443Z,-3.58
2023-12-15T22:38:31.739Z,-3.60
2023-12-15T22:40:59.038Z,-3.75
2023-12-15T22:43:26.560Z,-3.57
2023-12-15T22:45:53.958Z,-3.45
2023-12-15T22:48:21.307Z,-3.21
2023-12-15T22:50:48.627Z,-3.45
2023-12-15T22:53:15.974Z,-3.81
2023-12-15T22:55:43.253Z,-3.78
2023-12-15T22:58:10.687Z,-3.75
2023-12-15T23:00:38.057Z,-3.66
2023-12-15T23:03:05.379Z,-3.89
2023-12-15T23:05:34.256Z,-3.88
2023-12-15T23:08:01.634Z,-4.03
2023-12-15T23:10:28.999Z,-4.06
2023-12-15T23:12:56.382Z,-3.66
2023-12-15T23:15:24.499Z,-3.43
2023-12-15T23:17:53.142Z,-3.44
2023-12-15T23:20:20.552Z,-3.52
2023-12-15T23:22:48.053Z,-3.49
2023-12-15T23:25:15.582Z,-3.56
2023-12-15T23:27:43.221Z,-3.51
2023-12-15T23:30:11.575Z,-3.54
2023-12-15T23:32:38.864Z,-3.66
2023-12-15T23:35:06.987Z,-3.71
2023-12-15T23:37:34.516Z,-3.84
2023-12-15T23:40:01.992Z,-3.70
2023-12-15T23:42:31.340Z,-3.61
2023-12-15T23:44:58.721Z,-4.09
2023-12-15T23:47:26.295Z,-3.83
2023-12-15T23:49:54.557Z,-3.94
2023-12-15T23:52:25.082Z,-3.80
2023-12-15T23:54:52.434Z,-4.05
2023-12-15T23:57:19.672Z,-4.06
2023-12-15T23:59:47.600Z,-4.36
